Vienna, Maryland
Current Conditions -  °F | °C
As of 10:09 AM on Wednesday 26 Nov 2014 (Local Time) from KCGE Reporting Station
Overcast Overcast  
Wind Chill: 37°   Ceiling: 1000
Heat Index: 43°   Visibility: 5mi
Dew Point: 41°   Wind: 9mph
Humidity: 93%   Direction: 20°NNE
Pressure: 29.97"   Gusts: 20mph
Location:  38.48°N, 75.82°W
Report Text: KCGE 261509Z AUTO 02008G17KT 5SM OVC010 06/05 A2997 RMK AO1
Loading
Personal Weather Stations






























Interactive Weather Map New forecast layout! Learn more

10-Day Weather Forecast

Advertisements
Track Severe Weather on mobile